Time;durP1;ratioP1;P1;durP2;ratioP2;P2;SDS_P1;SDS_P2;PMS_P1;PMS_P2;Temp;Humidity;BMP_temperature;BMP_pressure;BME280_temperature;BME280_humidity;BME280_pressure;Samples;Min_cycle;Max_cycle;Signal;HPM_P1;HPM_P2
2023/03/07 00:00:46;;;;;;;32.07;16.67;;;;;;;;;;5052494;28;20253;-68
2023/03/07 00:03:15;;;;;;;32.40;16.47;;;;;;;;;;5040840;28;20185;-69
2023/03/07 00:05:41;;;;;;;28.37;15.40;;;;;;;;;;5055119;28;20274;-70
2023/03/07 00:08:07;;;;;;;28.63;15.13;;;;;;;;;;5070563;28;20640;-68
2023/03/07 00:10:33;;;;;;;32.27;16.60;;;;;;;;;;5067288;28;20184;-68
2023/03/07 00:12:58;;;;;;;26.67;15.33;;;;;;;;;;5056074;28;20276;-68
2023/03/07 00:15:24;;;;;;;26.90;16.07;;;;;;;;;;5055070;28;20294;-68
2023/03/07 00:17:50;;;;;;;26.93;15.40;;;;;;;;;;5061597;28;20193;-68
2023/03/07 00:20:15;;;;;;;27.83;15.47;;;;;;;;;;5055103;28;20652;-68
2023/03/07 00:22:42;;;;;;;28.10;15.00;;;;;;;;;;5051945;28;20181;-70
2023/03/07 00:25:09;;;;;;;28.27;15.80;;;;;;;;;;5053189;28;20585;-69
2023/03/07 00:27:34;;;;;;;24.17;13.83;;;;;;;;;;5056179;28;20189;-71
2023/03/07 00:30:00;;;;;;;22.90;14.13;;;;;;;;;;5066237;28;20185;-72
2023/03/07 00:32:26;;;;;;;26.43;15.27;;;;;;;;;;5053934;28;20184;-70
2023/03/07 00:34:53;;;;;;;19.57;13.33;;;;;;;;;;5059915;28;20268;-71
2023/03/07 00:37:18;;;;;;;26.10;13.33;;;;;;;;;;5051769;28;20180;-70
2023/03/07 00:39:43;;;;;;;21.27;12.13;;;;;;;;;;5063078;28;20188;-72
2023/03/07 00:42:09;;;;;;;19.47;10.07;;;;;;;;;;5068712;28;20192;-72
2023/03/07 00:44:34;;;;;;;17.90;10.77;;;;;;;;;;5067714;28;20177;-69
2023/03/07 00:47:00;;;;;;;17.97;10.33;;;;;;;;;;5052831;28;20193;-71
2023/03/07 00:49:25;;;;;;;17.60;9.30;;;;;;;;;;5058260;28;20188;-70
2023/03/07 00:51:51;;;;;;;14.33;8.80;;;;;;;;;;5067839;28;20522;-70
2023/03/07 00:54:16;;;;;;;12.37;8.20;;;;;;;;;;5058718;28;20200;-72
2023/03/07 00:56:42;;;;;;;13.53;8.37;;;;;;;;;;5065738;28;20281;-71
2023/03/07 00:59:08;;;;;;;13.13;7.67;;;;;;;;;;5058125;28;20188;-70
2023/03/07 01:01:33;;;;;;;12.50;7.57;;;;;;;;;;5063235;28;20255;-70
2023/03/07 01:03:58;;;;;;;12.63;6.97;;;;;;;;;;5056909;28;20189;-68
2023/03/07 01:06:26;;;;;;;11.07;7.13;;;;;;;;;;5055220;28;20231;-68
2023/03/07 01:08:54;;;;;;;11.97;6.53;;;;;;;;;;5054542;28;20299;-69
2023/03/07 01:11:19;;;;;;;9.60;6.30;;;;;;;;;;5067593;28;20181;-70
2023/03/07 01:13:45;;;;;;;12.77;6.40;;;;;;;;;;5067915;28;20181;-69
2023/03/07 01:16:19;;;;;;;13.57;7.07;;;;;;;;;;5064006;28;20288;-70
2023/03/07 01:18:48;;;;;;;12.57;7.70;;;;;;;;;;5067094;28;20188;-69
2023/03/07 01:21:20;;;;;;;9.37;7.37;;;;;;;;;;5058154;28;20185;-69
2023/03/07 01:23:46;;;;;;;12.63;7.60;;;;;;;;;;5069291;28;20245;-70
2023/03/07 01:26:17;;;;;;;13.37;8.60;;;;;;;;;;5051371;28;20181;-69
2023/03/07 01:28:43;;;;;;;14.20;8.47;;;;;;;;;;5062367;28;20185;-69
2023/03/07 01:31:08;;;;;;;13.40;7.70;;;;;;;;;;5058177;28;20546;-69
2023/03/07 01:33:34;;;;;;;12.23;8.80;;;;;;;;;;5059916;28;20231;-69
2023/03/07 01:35:59;;;;;;;15.97;9.30;;;;;;;;;;5066967;28;20204;-69
2023/03/07 01:38:27;;;;;;;13.83;8.33;;;;;;;;;;5052883;28;20527;-67
2023/03/07 01:40:52;;;;;;;15.57;8.80;;;;;;;;;;5069520;28;20192;-68
2023/03/07 01:43:22;;;;;;;17.07;8.60;;;;;;;;;;5057840;28;20198;-68
2023/03/07 01:45:47;;;;;;;16.60;8.60;;;;;;;;;;5057921;28;20247;-69
2023/03/07 01:48:13;;;;;;;14.47;7.37;;;;;;;;;;5054043;28;20236;-68
2023/03/07 01:50:38;;;;;;;14.57;8.10;;;;;;;;;;5063714;28;20217;-68
2023/03/07 01:53:05;;;;;;;13.23;7.23;;;;;;;;;;5059142;28;20671;-68
2023/03/07 01:55:32;;;;;;;14.27;7.70;;;;;;;;;;5062879;28;20227;-68
2023/03/07 01:58:08;;;;;;;11.60;7.03;;;;;;;;;;5060184;28;20755;-68
2023/03/07 02:00:37;;;;;;;10.90;6.73;;;;;;;;;;5055373;28;20240;-69
2023/03/07 02:03:17;;;;;;;12.30;6.40;;;;;;;;;;5063819;28;20192;-73
2023/03/07 02:05:52;;;;;;;7.67;3.90;;;;;;;;;;5055065;28;20221;-71
2023/03/07 02:08:20;;;;;;;6.03;2.50;;;;;;;;;;5058945;28;20185;-72
2023/03/07 02:10:45;;;;;;;4.73;1.83;;;;;;;;;;5068407;28;20189;-72
2023/03/07 02:13:11;;;;;;;6.50;1.60;;;;;;;;;;5050091;28;20300;-72
2023/03/07 02:15:37;;;;;;;2.77;0.80;;;;;;;;;;5061626;28;20774;-72
2023/03/07 02:18:04;;;;;;;2.17;0.80;;;;;;;;;;5064448;28;20189;-71
2023/03/07 02:21:01;;;;;;;4.67;1.20;;;;;;;;;;5061847;28;20561;-70
2023/03/07 02:23:51;;;;;;;2.27;0.77;;;;;;;;;;5050917;28;20192;-71
2023/03/07 02:26:35;;;;;;;2.47;1.30;;;;;;;;;;5052895;28;20185;-70
2023/03/07 02:29:01;;;;;;;1.53;0.97;;;;;;;;;;5056868;28;20366;-70
2023/03/07 02:31:27;;;;;;;5.00;1.67;;;;;;;;;;5055934;28;20526;-69
2023/03/07 02:33:52;;;;;;;4.60;1.40;;;;;;;;;;5058408;28;20221;-69
2023/03/07 02:36:22;;;;;;;4.87;1.80;;;;;;;;;;5057139;28;20431;-68
2023/03/07 02:38:50;;;;;;;4.43;1.27;;;;;;;;;;5053528;28;20290;-69
2023/03/07 02:41:19;;;;;;;5.53;0.90;;;;;;;;;;5054826;28;20194;-68
2023/03/07 02:43:45;;;;;;;5.40;1.20;;;;;;;;;;5062163;28;20188;-68
2023/03/07 02:46:10;;;;;;;3.33;0.83;;;;;;;;;;5059651;28;20677;-69
2023/03/07 02:48:35;;;;;;;4.00;1.10;;;;;;;;;;5048981;28;20200;-68
2023/03/07 02:51:01;;;;;;;5.47;1.10;;;;;;;;;;5050353;28;20189;-68
2023/03/07 02:53:27;;;;;;;3.83;1.07;;;;;;;;;;5050312;28;20330;-68
2023/03/07 02:55:52;;;;;;;2.87;1.10;;;;;;;;;;5053705;28;20573;-68
2023/03/07 02:58:18;;;;;;;6.77;1.00;;;;;;;;;;5047332;28;20192;-68
2023/03/07 03:00:43;;;;;;;3.83;1.30;;;;;;;;;;5056564;28;20576;-68
2023/03/07 03:03:08;;;;;;;6.43;1.40;;;;;;;;;;5055992;28;20212;-68
2023/03/07 03:05:34;;;;;;;4.53;1.80;;;;;;;;;;5053273;28;20649;-69
2023/03/07 03:07:59;;;;;;;6.07;1.87;;;;;;;;;;5056131;28;21240;-67
2023/03/07 03:10:25;;;;;;;6.17;2.00;;;;;;;;;;5055348;28;20311;-67
2023/03/07 03:12:50;;;;;;;6.60;2.10;;;;;;;;;;5057081;28;20235;-67
2023/03/07 03:15:15;;;;;;;7.90;2.00;;;;;;;;;;5069254;28;20271;-69
2023/03/07 03:17:41;;;;;;;5.50;2.47;;;;;;;;;;5055905;28;20217;-69
2023/03/07 03:20:11;;;;;;;6.53;3.17;;;;;;;;;;5049346;28;20196;-67
2023/03/07 03:22:38;;;;;;;8.07;2.77;;;;;;;;;;5054734;28;20181;-69
2023/03/07 03:25:05;;;;;;;6.37;2.83;;;;;;;;;;5049194;28;20720;-67
2023/03/07 03:27:31;;;;;;;6.53;3.00;;;;;;;;;;5060102;28;20250;-67
2023/03/07 03:29:57;;;;;;;6.73;3.80;;;;;;;;;;5053067;28;20198;-69
2023/03/07 03:32:22;;;;;;;9.87;2.93;;;;;;;;;;5043837;28;20250;-68
2023/03/07 03:34:47;;;;;;;11.40;3.60;;;;;;;;;;5049077;28;20240;-67
2023/03/07 03:37:13;;;;;;;15.30;3.80;;;;;;;;;;5059156;28;20185;-68
2023/03/07 03:39:39;;;;;;;10.67;3.50;;;;;;;;;;5058915;28;20213;-67
2023/03/07 03:42:05;;;;;;;9.73;3.20;;;;;;;;;;5055373;28;20272;-69
2023/03/07 03:44:30;;;;;;;9.23;3.43;;;;;;;;;;5055073;28;20200;-70
2023/03/07 03:46:55;;;;;;;10.57;3.37;;;;;;;;;;5054607;28;20177;-69
2023/03/07 03:49:21;;;;;;;11.23;3.30;;;;;;;;;;5057709;28;20185;-70
2023/03/07 03:51:46;;;;;;;9.00;2.90;;;;;;;;;;5059719;28;20701;-69
2023/03/07 03:54:12;;;;;;;10.60;3.30;;;;;;;;;;5056023;28;20245;-69
2023/03/07 03:56:37;;;;;;;9.73;2.90;;;;;;;;;;5054826;28;20764;-69
2023/03/07 03:59:03;;;;;;;10.57;2.90;;;;;;;;;;5064185;28;20193;-68
2023/03/07 04:01:28;;;;;;;7.07;2.70;;;;;;;;;;5049478;28;20268;-67
2023/03/07 04:03:55;;;;;;;8.47;3.20;;;;;;;;;;5050953;28;20189;-67
2023/03/07 04:06:32;;;;;;;8.60;2.60;;;;;;;;;;5048581;28;20247;-67
2023/03/07 04:08:58;;;;;;;9.30;2.30;;;;;;;;;;5050474;28;20208;-68
2023/03/07 04:11:24;;;;;;;6.47;2.60;;;;;;;;;;5070107;28;20188;-67
2023/03/07 04:13:50;;;;;;;10.03;2.10;;;;;;;;;;5058195;28;20231;-67
2023/03/07 04:16:16;;;;;;;8.20;2.00;;;;;;;;;;5057746;28;20232;-67
2023/03/07 04:18:42;;;;;;;13.03;2.30;;;;;;;;;;5049106;28;20611;-67
2023/03/07 04:21:08;;;;;;;12.03;2.23;;;;;;;;;;5051870;28;20627;-68
2023/03/07 04:23:34;;;;;;;7.43;1.90;;;;;;;;;;5054752;28;20547;-69
2023/03/07 04:26:01;;;;;;;5.60;1.63;;;;;;;;;;5055864;28;20223;-67
2023/03/07 04:28:41;;;;;;;12.37;1.90;;;;;;;;;;5067855;28;20203;-67
2023/03/07 04:31:07;;;;;;;9.03;1.90;;;;;;;;;;5048775;28;20497;-67
2023/03/07 04:33:32;;;;;;;7.40;2.10;;;;;;;;;;5056854;28;20216;-67
2023/03/07 04:35:57;;;;;;;17.07;1.90;;;;;;;;;;5058101;28;20634;-67
2023/03/07 04:38:23;;;;;;;5.30;1.57;;;;;;;;;;5061040;28;20199;-67
2023/03/07 04:40:48;;;;;;;10.67;1.60;;;;;;;;;;5054764;28;20267;-67
2023/03/07 04:43:13;;;;;;;8.97;1.70;;;;;;;;;;5054384;28;20277;-67
2023/03/07 04:45:39;;;;;;;11.40;2.23;;;;;;;;;;5060671;28;20242;-67
2023/03/07 04:48:04;;;;;;;7.07;1.50;;;;;;;;;;5066933;28;20203;-67
2023/03/07 04:50:30;;;;;;;7.83;2.03;;;;;;;;;;5055545;28;20193;-67
2023/03/07 04:52:55;;;;;;;7.17;1.27;;;;;;;;;;5059716;28;20185;-67
2023/03/07 04:55:20;;;;;;;8.67;1.20;;;;;;;;;;5057013;28;20280;-67
2023/03/07 04:57:46;;;;;;;10.23;1.60;;;;;;;;;;5051696;28;20454;-67
2023/03/07 05:00:12;;;;;;;4.50;1.10;;;;;;;;;;5045134;28;20416;-67
2023/03/07 05:02:38;;;;;;;8.50;1.43;;;;;;;;;;5051423;28;20185;-67
2023/03/07 05:05:04;;;;;;;6.60;0.90;;;;;;;;;;5051762;28;20199;-67
2023/03/07 05:07:30;;;;;;;7.37;1.23;;;;;;;;;;5062070;28;20211;-67
2023/03/07 05:09:56;;;;;;;7.73;0.83;;;;;;;;;;5053362;28;20190;-67
2023/03/07 05:12:22;;;;;;;5.57;0.90;;;;;;;;;;5058242;28;20185;-67
2023/03/07 05:14:47;;;;;;;8.43;0.90;;;;;;;;;;5054118;28;20249;-67
2023/03/07 05:17:13;;;;;;;9.10;0.87;;;;;;;;;;5058076;28;20227;-69
2023/03/07 05:19:38;;;;;;;10.43;1.13;;;;;;;;;;5060157;28;20185;-67
2023/03/07 05:22:04;;;;;;;6.73;1.00;;;;;;;;;;5052639;28;20250;-67
2023/03/07 05:24:29;;;;;;;5.67;0.80;;;;;;;;;;5046703;28;20782;-67
2023/03/07 05:26:54;;;;;;;6.77;0.93;;;;;;;;;;5051736;28;20249;-67
2023/03/07 05:29:20;;;;;;;10.37;1.27;;;;;;;;;;5051235;28;20581;-67
2023/03/07 05:31:45;;;;;;;5.17;0.87;;;;;;;;;;5064235;28;20192;-67
2023/03/07 05:34:10;;;;;;;6.77;0.90;;;;;;;;;;5050159;28;20235;-67
2023/03/07 05:36:36;;;;;;;4.47;0.60;;;;;;;;;;5062745;28;20209;-67
2023/03/07 05:39:01;;;;;;;6.13;1.00;;;;;;;;;;5060640;28;20212;-67
2023/03/07 05:41:27;;;;;;;9.07;1.23;;;;;;;;;;5063235;28;20264;-67
2023/03/07 05:43:54;;;;;;;4.67;0.67;;;;;;;;;;5064202;28;20196;-66
2023/03/07 05:46:19;;;;;;;6.33;0.80;;;;;;;;;;5053508;28;20207;-67
2023/03/07 05:48:45;;;;;;;8.83;0.83;;;;;;;;;;5056749;28;20260;-67
2023/03/07 05:51:10;;;;;;;6.97;1.10;;;;;;;;;;5058635;28;20259;-67
2023/03/07 05:53:35;;;;;;;5.00;0.83;;;;;;;;;;5063243;28;20219;-66
2023/03/07 05:56:01;;;;;;;6.00;0.87;;;;;;;;;;5060921;28;20240;-67
2023/03/07 05:58:26;;;;;;;5.67;0.60;;;;;;;;;;5054608;28;20201;-67
2023/03/07 06:00:51;;;;;;;5.20;0.70;;;;;;;;;;5055050;28;20205;-66
2023/03/07 06:03:17;;;;;;;5.67;0.53;;;;;;;;;;5053408;28;20556;-66
2023/03/07 06:05:42;;;;;;;2.97;0.50;;;;;;;;;;5055660;28;20204;-67
2023/03/07 06:08:08;;;;;;;4.40;0.70;;;;;;;;;;5059097;28;20290;-67
2023/03/07 06:10:33;;;;;;;7.70;0.80;;;;;;;;;;5049607;28;20193;-67
2023/03/07 06:12:59;;;;;;;6.87;0.87;;;;;;;;;;5045635;28;20566;-67
2023/03/07 06:15:24;;;;;;;5.43;0.53;;;;;;;;;;5056920;28;20559;-67
2023/03/07 06:17:51;;;;;;;7.17;1.10;;;;;;;;;;5049671;28;20197;-67
2023/03/07 06:20:19;;;;;;;3.53;0.50;;;;;;;;;;5051081;28;20460;-67
2023/03/07 06:22:45;;;;;;;4.63;0.83;;;;;;;;;;5055406;28;20256;-67
2023/03/07 06:25:11;;;;;;;4.50;0.60;;;;;;;;;;5046468;28;20599;-67
2023/03/07 06:27:37;;;;;;;1.67;0.50;;;;;;;;;;5049377;28;20186;-67
2023/03/07 06:30:04;;;;;;;2.87;0.40;;;;;;;;;;5064559;28;20242;-67
2023/03/07 06:32:30;;;;;;;3.87;0.67;;;;;;;;;;5055011;28;20181;-67
2023/03/07 06:34:56;;;;;;;5.53;0.93;;;;;;;;;;5053145;28;20217;-67
2023/03/07 06:37:21;;;;;;;9.33;1.10;;;;;;;;;;5062009;28;20184;-69
2023/03/07 06:39:47;;;;;;;11.77;1.00;;;;;;;;;;5060419;28;20206;-67
2023/03/07 06:42:12;;;;;;;8.17;1.23;;;;;;;;;;5059127;28;20903;-67
2023/03/07 06:44:38;;;;;;;2.60;0.50;;;;;;;;;;5069370;28;20219;-68
2023/03/07 06:47:03;;;;;;;4.73;0.80;;;;;;;;;;5062495;28;20190;-67
2023/03/07 06:49:29;;;;;;;5.93;0.73;;;;;;;;;;5062341;28;20238;-67
2023/03/07 06:51:54;;;;;;;10.50;0.70;;;;;;;;;;5064567;28;20254;-67
2023/03/07 06:54:20;;;;;;;9.43;1.03;;;;;;;;;;5055239;28;20199;-68
2023/03/07 06:56:45;;;;;;;6.03;0.80;;;;;;;;;;5060399;28;20220;-68
2023/03/07 06:59:10;;;;;;;6.57;0.97;;;;;;;;;;5059206;28;20671;-69
2023/03/07 07:01:36;;;;;;;4.87;0.70;;;;;;;;;;5063443;28;20571;-68
2023/03/07 07:04:02;;;;;;;10.57;1.27;;;;;;;;;;5058194;28;20268;-68
2023/03/07 07:06:28;;;;;;;4.47;0.53;;;;;;;;;;5058808;28;20182;-68
2023/03/07 07:08:55;;;;;;;6.03;0.97;;;;;;;;;;5059350;28;20184;-69
2023/03/07 07:11:22;;;;;;;6.50;1.07;;;;;;;;;;5055584;28;20182;-70
2023/03/07 07:13:47;;;;;;;7.27;1.47;;;;;;;;;;5057183;28;20263;-70
2023/03/07 07:16:12;;;;;;;6.50;0.97;;;;;;;;;;5053528;28;20205;-70
2023/03/07 07:18:38;;;;;;;5.90;1.30;;;;;;;;;;5053144;28;20493;-70
2023/03/07 07:21:04;;;;;;;6.43;0.90;;;;;;;;;;5064178;28;20189;-71
2023/03/07 07:23:29;;;;;;;6.87;0.80;;;;;;;;;;5056067;28;20185;-71
2023/03/07 07:25:55;;;;;;;5.83;0.90;;;;;;;;;;5060064;28;20259;-72
2023/03/07 07:28:20;;;;;;;3.13;0.60;;;;;;;;;;5067546;28;20247;-71
2023/03/07 07:30:46;;;;;;;8.17;1.07;;;;;;;;;;5060088;28;20300;-71
2023/03/07 07:33:11;;;;;;;6.30;0.93;;;;;;;;;;5061926;28;20259;-72
2023/03/07 07:35:38;;;;;;;3.80;1.00;;;;;;;;;;5049633;28;20217;-70
2023/03/07 07:38:03;;;;;;;6.27;0.80;;;;;;;;;;5060814;28;20203;-70
2023/03/07 07:40:29;;;;;;;3.10;0.80;;;;;;;;;;5052580;28;20645;-70
2023/03/07 07:42:54;;;;;;;5.67;0.97;;;;;;;;;;5062354;28;20210;-70
2023/03/07 07:45:21;;;;;;;2.13;0.70;;;;;;;;;;5066126;28;20271;-70
2023/03/07 07:47:50;;;;;;;3.67;0.77;;;;;;;;;;5056045;28;20358;-68
2023/03/07 07:50:17;;;;;;;5.60;0.90;;;;;;;;;;5061019;28;20219;-69
2023/03/07 07:52:43;;;;;;;3.67;0.60;;;;;;;;;;5049506;28;20229;-68
2023/03/07 07:55:09;;;;;;;5.60;0.80;;;;;;;;;;5058746;28;20700;-69
2023/03/07 07:57:35;;;;;;;8.33;0.87;;;;;;;;;;5054978;28;20232;-69
2023/03/07 08:00:02;;;;;;;6.37;0.93;;;;;;;;;;5050764;28;20687;-69
2023/03/07 08:02:29;;;;;;;5.70;0.80;;;;;;;;;;5063450;28;20189;-69
2023/03/07 08:04:54;;;;;;;6.63;1.50;;;;;;;;;;5055818;28;20192;-69
2023/03/07 08:07:20;;;;;;;3.73;0.70;;;;;;;;;;5060427;28;20192;-69
2023/03/07 08:09:45;;;;;;;7.07;0.93;;;;;;;;;;5054552;28;20197;-69
2023/03/07 08:12:11;;;;;;;3.77;0.90;;;;;;;;;;5048721;28;20276;-68
2023/03/07 08:14:37;;;;;;;2.60;0.87;;;;;;;;;;5062317;28;20192;-68
2023/03/07 08:17:03;;;;;;;7.43;1.03;;;;;;;;;;5058947;28;20216;-68
2023/03/07 08:19:29;;;;;;;4.97;0.60;;;;;;;;;;5052815;28;20185;-68
2023/03/07 08:21:54;;;;;;;4.27;0.77;;;;;;;;;;5054183;28;20274;-68
2023/03/07 08:24:20;;;;;;;3.30;0.90;;;;;;;;;;5052303;28;20608;-68
2023/03/07 08:26:45;;;;;;;3.67;1.37;;;;;;;;;;5061166;28;20192;-68
2023/03/07 08:29:11;;;;;;;6.70;1.13;;;;;;;;;;5048370;28;20675;-69
2023/03/07 08:31:36;;;;;;;3.33;0.60;;;;;;;;;;5063641;28;20559;-68
2023/03/07 08:34:02;;;;;;;5.83;0.77;;;;;;;;;;5064661;28;20581;-68
2023/03/07 08:36:27;;;;;;;4.00;0.60;;;;;;;;;;5049429;28;20198;-67
2023/03/07 08:38:52;;;;;;;4.70;0.90;;;;;;;;;;5063229;28;20633;-68
2023/03/07 08:41:19;;;;;;;6.13;0.90;;;;;;;;;;5063032;28;20203;-68
2023/03/07 08:43:45;;;;;;;4.80;0.67;;;;;;;;;;5049363;28;20264;-68
2023/03/07 08:46:10;;;;;;;5.23;0.80;;;;;;;;;;5055111;28;20272;-68
2023/03/07 08:48:36;;;;;;;4.43;0.90;;;;;;;;;;5064515;28;20185;-68
2023/03/07 08:51:09;;;;;;;2.80;0.47;;;;;;;;;;5058786;28;20177;-68
2023/03/07 08:53:35;;;;;;;6.40;0.80;;;;;;;;;;5066584;28;20185;-68
2023/03/07 08:56:06;;;;;;;2.80;0.70;;;;;;;;;;5057821;28;20265;-68
2023/03/07 08:58:31;;;;;;;3.03;0.90;;;;;;;;;;5059952;28;20571;-68
2023/03/07 09:00:57;;;;;;;5.07;0.90;;;;;;;;;;5060019;28;20205;-68
2023/03/07 09:03:22;;;;;;;5.00;0.83;;;;;;;;;;5071632;28;20199;-68
2023/03/07 09:05:48;;;;;;;5.43;1.03;;;;;;;;;;5070498;28;20263;-68
2023/03/07 09:08:13;;;;;;;4.20;0.90;;;;;;;;;;5075395;28;20189;-68
2023/03/07 09:10:39;;;;;;;5.20;0.60;;;;;;;;;;5071381;28;20192;-68
2023/03/07 09:13:04;;;;;;;4.40;0.80;;;;;;;;;;5071075;28;20189;-68
2023/03/07 09:15:29;;;;;;;3.13;0.80;;;;;;;;;;5067387;28;20247;-69
2023/03/07 09:17:55;;;;;;;5.10;0.87;;;;;;;;;;5059512;28;20551;-68
2023/03/07 09:20:21;;;;;;;6.03;1.10;;;;;;;;;;5060444;28;20204;-67
2023/03/07 09:22:46;;;;;;;6.27;1.10;;;;;;;;;;5056714;28;20205;-68
2023/03/07 09:25:12;;;;;;;1.87;0.70;;;;;;;;;;5051936;28;20186;-68
2023/03/07 09:27:37;;;;;;;4.33;0.90;;;;;;;;;;5049676;28;20181;-68
2023/03/07 09:30:03;;;;;;;3.40;0.90;;;;;;;;;;5056425;28;20228;-68
2023/03/07 09:32:31;;;;;;;6.73;1.00;;;;;;;;;;5063073;28;20691;-68
2023/03/07 09:34:56;;;;;;;5.87;0.97;;;;;;;;;;5052366;28;20364;-68
2023/03/07 09:37:22;;;;;;;2.40;0.70;;;;;;;;;;5057502;28;20563;-67
2023/03/07 09:39:49;;;;;;;4.40;0.70;;;;;;;;;;5055590;28;20266;-67
2023/03/07 09:42:45;;;;;;;6.53;1.23;;;;;;;;;;5062470;28;20186;-68
2023/03/07 09:45:20;;;;;;;3.00;0.80;;;;;;;;;;5050461;28;20663;-68
2023/03/07 09:48:00;;;;;;;5.63;1.13;;;;;;;;;;5062119;28;20267;-68
2023/03/07 09:50:51;;;;;;;5.20;0.93;;;;;;;;;;5055851;28;20292;-68
2023/03/07 09:53:42;;;;;;;6.00;1.60;;;;;;;;;;5069519;28;20680;-68
2023/03/07 09:56:14;;;;;;;5.07;0.97;;;;;;;;;;5060314;28;20703;-68
2023/03/07 09:58:44;;;;;;;2.23;0.73;;;;;;;;;;5051563;28;20189;-67
2023/03/07 10:01:14;;;;;;;3.67;0.70;;;;;;;;;;5062373;28;20216;-68
2023/03/07 10:03:52;;;;;;;5.53;0.80;;;;;;;;;;5070809;28;20773;-68
2023/03/07 10:06:29;;;;;;;3.37;1.00;;;;;;;;;;5058466;28;20184;-68
2023/03/07 10:08:56;;;;;;;3.93;1.00;;;;;;;;;;5076795;28;20268;-68
2023/03/07 10:11:51;;;;;;;3.97;0.93;;;;;;;;;;5076545;28;20239;-67
2023/03/07 10:14:51;;;;;;;6.83;1.03;;;;;;;;;;5068248;28;20283;-68
2023/03/07 10:17:43;;;;;;;5.27;1.10;;;;;;;;;;5061750;28;20204;-66
2023/03/07 10:20:37;;;;;;;7.60;1.50;;;;;;;;;;5056548;28;20339;-66
2023/03/07 10:23:21;;;;;;;4.97;1.10;;;;;;;;;;5056686;28;20515;-67
2023/03/07 10:25:52;;;;;;;6.67;1.43;;;;;;;;;;5054358;28;20538;-68
2023/03/07 10:28:24;;;;;;;3.07;1.00;;;;;;;;;;5056217;28;20191;-67
2023/03/07 10:30:52;;;;;;;6.70;1.37;;;;;;;;;;5071030;28;20245;-67
2023/03/07 10:33:19;;;;;;;3.43;0.90;;;;;;;;;;5066214;28;20730;-67
2023/03/07 10:36:08;;;;;;;4.97;1.77;;;;;;;;;;5055970;28;20201;-67
2023/03/07 10:38:41;;;;;;;10.17;1.67;;;;;;;;;;5060189;28;20265;-67
2023/03/07 10:41:16;;;;;;;6.20;1.10;;;;;;;;;;5054553;28;20605;-67
2023/03/07 10:43:43;;;;;;;3.13;0.90;;;;;;;;;;5051913;28;20589;-67
2023/03/07 10:46:16;;;;;;;4.17;1.30;;;;;;;;;;5057459;28;20491;-67
2023/03/07 10:48:54;;;;;;;2.40;1.10;;;;;;;;;;5063937;28;20188;-67
2023/03/07 10:51:49;;;;;;;6.43;1.37;;;;;;;;;;5058120;28;20582;-67
2023/03/07 10:54:19;;;;;;;3.47;0.90;;;;;;;;;;5055354;28;20190;-67
2023/03/07 10:57:13;;;;;;;4.10;1.10;;;;;;;;;;5066450;28;20587;-67
2023/03/07 10:59:47;;;;;;;2.30;1.07;;;;;;;;;;5063246;28;20197;-67
2023/03/07 11:02:35;;;;;;;5.40;1.17;;;;;;;;;;5065187;28;20621;-66
2023/03/07 11:05:02;;;;;;;5.40;1.20;;;;;;;;;;5050510;28;20388;-66
2023/03/07 11:07:33;;;;;;;5.43;1.20;;;;;;;;;;5062293;28;20177;-66
2023/03/07 11:10:00;;;;;;;5.70;0.93;;;;;;;;;;5052141;28;20644;-66
2023/03/07 11:12:28;;;;;;;3.67;0.90;;;;;;;;;;5063199;28;20188;-66
2023/03/07 11:14:56;;;;;;;4.87;0.90;;;;;;;;;;5066067;28;20185;-67
2023/03/07 11:17:43;;;;;;;2.30;0.90;;;;;;;;;;5054366;28;20193;-67
2023/03/07 11:20:30;;;;;;;6.22;0.90;;;;;;;;;;5042391;28;20591;-66
2023/03/07 11:23:22;;;;;;;4.53;0.80;;;;;;;;;;5067786;28;20185;-66
2023/03/07 11:25:48;;;;;;;6.57;0.93;;;;;;;;;;5053248;28;20173;-67
2023/03/07 11:28:40;;;;;;;4.32;1.00;;;;;;;;;;5068365;28;20181;-67
2023/03/07 11:31:20;;;;;;;3.95;1.00;;;;;;;;;;5060729;28;20283;-66
2023/03/07 11:34:05;;;;;;;4.55;0.80;;;;;;;;;;5063270;28;20273;-66
2023/03/07 11:36:33;;;;;;;13.00;1.20;;;;;;;;;;5055999;28;20213;-67
2023/03/07 11:39:17;;;;;;;3.83;0.90;;;;;;;;;;5060065;28;20231;-67
2023/03/07 11:41:53;;;;;;;4.70;0.82;;;;;;;;;;5058548;28;20190;-67
2023/03/07 11:44:30;;;;;;;7.38;1.15;;;;;;;;;;5065390;28;20203;-67
2023/03/07 11:47:28;;;;;;;7.32;1.30;;;;;;;;;;5056440;28;20180;-67
2023/03/07 11:50:21;;;;;;;4.32;0.85;;;;;;;;;;5053370;28;20208;-67
2023/03/07 11:53:17;;;;;;;7.73;1.10;;;;;;;;;;5054977;28;20193;-66
2023/03/07 11:56:04;;;;;;;4.53;1.20;;;;;;;;;;5052604;28;20929;-68
2023/03/07 11:58:54;;;;;;;5.70;1.60;;;;;;;;;;5068039;28;20267;-68
2023/03/07 12:01:50;;;;;;;6.37;1.20;;;;;;;;;;5062825;28;20209;-72
2023/03/07 12:04:47;;;;;;;3.43;1.10;;;;;;;;;;5049250;28;20588;-73
2023/03/07 12:07:50;;;;;;;3.90;1.23;;;;;;;;;;5068662;28;20622;-73
2023/03/07 12:10:27;;;;;;;7.73;1.80;;;;;;;;;;5055942;28;20192;-73
2023/03/07 12:13:21;;;;;;;5.00;1.00;;;;;;;;;;5053565;28;20189;-73
2023/03/07 12:16:18;;;;;;;4.27;1.10;;;;;;;;;;5054187;28;20220;-73
2023/03/07 12:19:03;;;;;;;5.87;1.30;;;;;;;;;;5053498;28;20196;-72
2023/03/07 12:21:48;;;;;;;5.00;1.77;;;;;;;;;;5055394;28;20185;-71
2023/03/07 12:24:25;;;;;;;7.17;1.80;;;;;;;;;;5055306;28;20195;-71
2023/03/07 12:27:01;;;;;;;5.50;1.67;;;;;;;;;;5061818;28;20272;-71
2023/03/07 12:29:26;;;;;;;3.87;2.00;;;;;;;;;;5056584;28;20181;-72
2023/03/07 12:31:56;;;;;;;5.87;1.40;;;;;;;;;;5058832;28;20275;-69
2023/03/07 12:34:30;;;;;;;4.00;1.90;;;;;;;;;;5057771;28;20225;-70
2023/03/07 12:37:08;;;;;;;3.50;1.50;;;;;;;;;;5051375;28;20288;-70
2023/03/07 12:39:43;;;;;;;3.57;0.90;;;;;;;;;;5057780;28;20181;-68
2023/03/07 12:42:17;;;;;;;7.23;0.90;;;;;;;;;;5054215;28;20569;-69
2023/03/07 12:44:48;;;;;;;4.13;1.00;;;;;;;;;;5070325;28;20715;-68
2023/03/07 12:47:16;;;;;;;7.07;1.27;;;;;;;;;;5072218;28;20268;-68
2023/03/07 12:49:52;;;;;;;4.03;0.83;;;;;;;;;;5054200;28;20193;-68
2023/03/07 12:52:46;;;;;;;4.97;1.17;;;;;;;;;;5052883;28;20189;-68
2023/03/07 12:55:45;;;;;;;4.83;0.80;;;;;;;;;;5059695;28;20746;-68
2023/03/07 12:58:20;;;;;;;1.23;0.67;;;;;;;;;;5066381;28;20348;-69
2023/03/07 13:00:52;;;;;;;4.37;1.10;;;;;;;;;;5061399;28;20210;-68
2023/03/07 13:03:33;;;;;;;8.23;1.10;;;;;;;;;;5064328;28;20182;-68
2023/03/07 13:05:58;;;;;;;4.10;0.90;;;;;;;;;;5052023;28;20236;-68
2023/03/07 13:08:24;;;;;;;4.23;0.97;;;;;;;;;;5064581;28;20184;-68
2023/03/07 13:10:50;;;;;;;4.47;0.90;;;;;;;;;;5056837;28;20212;-68
2023/03/07 13:13:43;;;;;;;1.10;0.57;;;;;;;;;;5072791;28;20196;-68
2023/03/07 13:16:12;;;;;;;2.37;0.57;;;;;;;;;;5065666;28;20239;-68
2023/03/07 13:18:38;;;;;;;3.40;0.57;;;;;;;;;;5061602;28;20200;-68
2023/03/07 13:21:13;;;;;;;5.00;0.50;;;;;;;;;;5055082;28;20188;-69
2023/03/07 13:23:38;;;;;;;4.47;0.40;;;;;;;;;;5064907;28;20185;-67
2023/03/07 13:26:06;;;;;;;2.15;0.35;;;;;;;;;;5058815;28;20177;-67
2023/03/07 13:28:46;;;;;;;2.50;0.85;;;;;;;;;;5061244;28;21004;-67
2023/03/07 13:31:15;;;;;;;2.30;0.33;;;;;;;;;;5066231;28;20177;-67
2023/03/07 13:33:41;;;;;;;2.03;0.40;;;;;;;;;;5052102;28;20429;-67
2023/03/07 13:36:34;;;;;;;2.27;0.33;;;;;;;;;;5054377;28;20212;-67
2023/03/07 13:39:00;;;;;;;1.73;0.30;;;;;;;;;;5060367;28;20189;-67
2023/03/07 13:41:47;;;;;;;2.90;0.63;;;;;;;;;;5066458;28;20197;-67
2023/03/07 13:44:37;;;;;;;1.17;0.30;;;;;;;;;;5054468;28;20198;-67
2023/03/07 13:47:03;;;;;;;2.37;0.30;;;;;;;;;;5053346;28;20653;-67
2023/03/07 13:49:39;;;;;;;1.63;0.27;;;;;;;;;;5067015;28;20713;-67
2023/03/07 13:52:17;;;;;;;1.67;0.50;;;;;;;;;;5059568;28;20191;-67
2023/03/07 13:54:47;;;;;;;2.73;0.33;;;;;;;;;;5068385;28;20211;-67
2023/03/07 13:57:17;;;;;;;2.47;0.30;;;;;;;;;;5060189;28;20196;-68
2023/03/07 13:59:48;;;;;;;2.53;0.40;;;;;;;;;;5052703;28;20247;-67
2023/03/07 14:02:16;;;;;;;2.40;0.50;;;;;;;;;;5061460;28;20617;-67
2023/03/07 14:04:54;;;;;;;1.87;0.30;;;;;;;;;;5050198;28;20243;-68
2023/03/07 14:07:33;;;;;;;3.30;0.40;;;;;;;;;;5060269;28;20181;-68
2023/03/07 14:10:05;;;;;;;5.63;0.57;;;;;;;;;;5062236;28;20208;-67
2023/03/07 14:12:56;;;;;;;1.47;0.30;;;;;;;;;;5057401;28;20185;-67
2023/03/07 14:15:47;;;;;;;4.27;0.40;;;;;;;;;;5059961;28;20224;-68
2023/03/07 14:18:50;;;;;;;1.63;0.40;;;;;;;;;;5057617;28;20188;-68
2023/03/07 14:21:36;;;;;;;3.50;0.60;;;;;;;;;;5060135;28;20999;-68
2023/03/07 14:24:28;;;;;;;3.67;0.83;;;;;;;;;;5055566;28;20643;-67
2023/03/07 14:27:01;;;;;;;2.57;0.60;;;;;;;;;;5057168;28;20293;-68
2023/03/07 14:29:28;;;;;;;2.70;0.97;;;;;;;;;;5057386;28;20228;-68
2023/03/07 14:31:56;;;;;;;4.00;0.50;;;;;;;;;;5051199;28;20196;-67
2023/03/07 14:34:27;;;;;;;4.83;0.70;;;;;;;;;;5058771;28;20239;-67
2023/03/07 14:37:03;;;;;;;2.07;0.40;;;;;;;;;;5058270;28;20252;-67
2023/03/07 14:39:39;;;;;;;4.10;0.60;;;;;;;;;;5056599;28;20671;-67
2023/03/07 14:42:23;;;;;;;3.47;0.70;;;;;;;;;;5055921;28;20268;-67
2023/03/07 14:45:09;;;;;;;4.73;0.70;;;;;;;;;;5064114;28;20227;-67
2023/03/07 14:47:41;;;;;;;4.73;0.80;;;;;;;;;;5049513;28;20189;-68
2023/03/07 14:50:27;;;;;;;1.80;0.63;;;;;;;;;;5063109;28;20222;-67
2023/03/07 14:53:01;;;;;;;4.20;0.97;;;;;;;;;;5058302;28;20247;-68
2023/03/07 14:55:33;;;;;;;7.27;0.73;;;;;;;;;;5053498;28;20208;-67
2023/03/07 14:57:59;;;;;;;4.50;0.60;;;;;;;;;;5067290;28;20305;-67
2023/03/07 15:00:28;;;;;;;3.57;0.70;;;;;;;;;;5049073;28;20696;-68